sensor_id;sensor_type;location;lat;lon;timestamp;pressure;altitude;pressure_sealevel;temperature;humidity
11339;BME280;5724;42.684;23.252;2022-07-18T00:02:16;95078.94;;;17.21;52.67
11339;BME280;5724;42.684;23.252;2022-07-18T00:04:43;95075.53;;;17.41;51.13
11339;BME280;5724;42.684;23.252;2022-07-18T00:07:09;95080.38;;;17.59;50.98
11339;BME280;5724;42.684;23.252;2022-07-18T00:09:42;95079.66;;;17.69;49.86
11339;BME280;5724;42.684;23.252;2022-07-18T00:12:09;95082.09;;;17.85;49.17
11339;BME280;5724;42.684;23.252;2022-07-18T00:14:36;95080.97;;;17.86;48.44
11339;BME280;5724;42.684;23.252;2022-07-18T00:17:03;95077.41;;;17.89;48.27
11339;BME280;5724;42.684;23.252;2022-07-18T00:19:30;95075.03;;;17.91;47.60
11339;BME280;5724;42.684;23.252;2022-07-18T00:21:55;95078.19;;;17.93;46.62
11339;BME280;5724;42.684;23.252;2022-07-18T00:24:21;95071.53;;;18.01;47.58
11339;BME280;5724;42.684;23.252;2022-07-18T00:26:46;95077.94;;;18.16;47.20
11339;BME280;5724;42.684;23.252;2022-07-18T00:29:12;95057.72;;;18.01;46.79
11339;BME280;5724;42.684;23.252;2022-07-18T00:31:38;95073.91;;;18.02;46.26
11339;BME280;5724;42.684;23.252;2022-07-18T00:34:04;95070.34;;;17.98;46.59
11339;BME280;5724;42.684;23.252;2022-07-18T00:36:30;95069.56;;;18.01;46.73
11339;BME280;5724;42.684;23.252;2022-07-18T00:38:56;95071.97;;;18.07;46.50
11339;BME280;5724;42.684;23.252;2022-07-18T00:41:23;95071.13;;;17.95;46.27
11339;BME280;5724;42.684;23.252;2022-07-18T00:43:52;95070.34;;;18.02;46.65
11339;BME280;5724;42.684;23.252;2022-07-18T00:46:24;95063.25;;;18.05;45.24
11339;BME280;5724;42.684;23.252;2022-07-18T00:48:51;95071.84;;;17.82;45.28
11339;BME280;5724;42.684;23.252;2022-07-18T00:51:17;95071.84;;;17.85;46.03
11339;BME280;5724;42.684;23.252;2022-07-18T00:53:44;95074.06;;;17.58;44.90
11339;BME280;5724;42.684;23.252;2022-07-18T00:56:10;95071.97;;;17.44;45.39
11339;BME280;5724;42.684;23.252;2022-07-18T00:58:36;95074.31;;;17.39;45.01
11339;BME280;5724;42.684;23.252;2022-07-18T01:01:02;95060.09;;;17.37;44.75
11339;BME280;5724;42.684;23.252;2022-07-18T01:03:46;95074.69;;;17.34;44.91
11339;BME280;5724;42.684;23.252;2022-07-18T01:06:12;95073.00;;;17.19;44.85
11339;BME280;5724;42.684;23.252;2022-07-18T01:08:38;95081.78;;;17.31;45.08
11339;BME280;5724;42.684;23.252;2022-07-18T01:11:05;95086.50;;;17.34;45.29
11339;BME280;5724;42.684;23.252;2022-07-18T01:13:31;95076.56;;;17.23;44.48
11339;BME280;5724;42.684;23.252;2022-07-18T01:15:56;95082.16;;;17.33;45.01
11339;BME280;5724;42.684;23.252;2022-07-18T01:18:22;95071.13;;;17.33;45.15
11339;BME280;5724;42.684;23.252;2022-07-18T01:20:47;95069.56;;;17.36;45.11
11339;BME280;5724;42.684;23.252;2022-07-18T01:23:12;95073.09;;;17.33;45.08
11339;BME280;5724;42.684;23.252;2022-07-18T01:25:38;95071.56;;;17.39;45.43
11339;BME280;5724;42.684;23.252;2022-07-18T01:28:04;95076.16;;;17.21;45.78
11339;BME280;5724;42.684;23.252;2022-07-18T01:30:29;95048.19;;;16.74;46.97
11339;BME280;5724;42.684;23.252;2022-07-18T01:32:57;95074.00;;;16.55;48.10
11339;BME280;5724;42.684;23.252;2022-07-18T01:35:23;95075.81;;;16.41;48.02
11339;BME280;5724;42.684;23.252;2022-07-18T01:37:51;95077.94;;;16.58;47.96
11339;BME280;5724;42.684;23.252;2022-07-18T01:40:17;95061.66;;;16.83;47.35
11339;BME280;5724;42.684;23.252;2022-07-18T01:42:42;95068.84;;;16.91;46.48
11339;BME280;5724;42.684;23.252;2022-07-18T01:45:08;95063.41;;;17.02;45.73
11339;BME280;5724;42.684;23.252;2022-07-18T01:47:33;95063.47;;;17.09;46.30
11339;BME280;5724;42.684;23.252;2022-07-18T01:49:59;95064.97;;;17.03;45.18
11339;BME280;5724;42.684;23.252;2022-07-18T01:52:24;95060.19;;;16.96;45.03
11339;BME280;5724;42.684;23.252;2022-07-18T01:54:50;95052.69;;;16.93;45.34
11339;BME280;5724;42.684;23.252;2022-07-18T01:57:15;95048.00;;;17.01;45.23
11339;BME280;5724;42.684;23.252;2022-07-18T01:59:41;95055.13;;;17.02;44.21
11339;BME280;5724;42.684;23.252;2022-07-18T02:02:06;95047.59;;;16.99;44.62
11339;BME280;5724;42.684;23.252;2022-07-18T02:04:32;95051.19;;;17.06;44.43
11339;BME280;5724;42.684;23.252;2022-07-18T02:07:16;95056.00;;;17.13;44.10
11339;BME280;5724;42.684;23.252;2022-07-18T02:09:41;95063.50;;;17.16;44.27
11339;BME280;5724;42.684;23.252;2022-07-18T02:12:07;95056.00;;;17.13;43.99
11339;BME280;5724;42.684;23.252;2022-07-18T02:14:33;95058.75;;;17.13;43.23
11339;BME280;5724;42.684;23.252;2022-07-18T02:16:58;95063.03;;;17.07;43.65
11339;BME280;5724;42.684;23.252;2022-07-18T02:19:23;95059.47;;;17.03;43.75
11339;BME280;5724;42.684;23.252;2022-07-18T02:21:49;95061.78;;;16.97;43.62
11339;BME280;5724;42.684;23.252;2022-07-18T02:24:14;95053.47;;;16.94;43.51
11339;BME280;5724;42.684;23.252;2022-07-18T02:26:40;95064.97;;;16.99;42.49
11339;BME280;5724;42.684;23.252;2022-07-18T02:29:05;95073.66;;;17.05;42.50
11339;BME280;5724;42.684;23.252;2022-07-18T02:31:31;95076.88;;;17.10;43.31
11339;BME280;5724;42.684;23.252;2022-07-18T02:33:56;95076.88;;;17.10;43.60
11339;BME280;5724;42.684;23.252;2022-07-18T02:36:23;95075.31;;;17.09;43.62
11339;BME280;5724;42.684;23.252;2022-07-18T02:38:49;95069.00;;;17.09;44.47
11339;BME280;5724;42.684;23.252;2022-07-18T02:41:14;95069.91;;;16.79;44.58
11339;BME280;5724;42.684;23.252;2022-07-18T02:43:40;95082.19;;;16.85;44.17
11339;BME280;5724;42.684;23.252;2022-07-18T02:46:05;95073.56;;;16.91;42.91
11339;BME280;5724;42.684;23.252;2022-07-18T02:48:30;95079.81;;;16.87;43.49
11339;BME280;5724;42.684;23.252;2022-07-18T02:50:57;95087.06;;;17.03;43.32
11339;BME280;5724;42.684;23.252;2022-07-18T02:53:22;95088.63;;;17.00;42.58
11339;BME280;5724;42.684;23.252;2022-07-18T02:55:49;95094.16;;;17.04;43.19
11339;BME280;5724;42.684;23.252;2022-07-18T02:58:16;95086.56;;;16.90;43.85
11339;BME280;5724;42.684;23.252;2022-07-18T03:00:41;95084.47;;;16.76;45.22
11339;BME280;5724;42.684;23.252;2022-07-18T03:03:07;95083.53;;;16.62;44.67
11339;BME280;5724;42.684;23.252;2022-07-18T03:05:32;95089.72;;;16.51;45.28
11339;BME280;5724;42.684;23.252;2022-07-18T03:07:58;95101.16;;;16.20;45.48
11339;BME280;5724;42.684;23.252;2022-07-18T03:10:23;95085.81;;;15.85;46.48
11339;BME280;5724;42.684;23.252;2022-07-18T03:12:49;95098.28;;;15.76;47.06
11339;BME280;5724;42.684;23.252;2022-07-18T03:15:14;95100.97;;;15.72;47.17
11339;BME280;5724;42.684;23.252;2022-07-18T03:17:40;95089.50;;;15.66;47.16
11339;BME280;5724;42.684;23.252;2022-07-18T03:20:05;95099.72;;;15.66;47.03
11339;BME280;5724;42.684;23.252;2022-07-18T03:22:31;95099.91;;;15.80;46.68
11339;BME280;5724;42.684;23.252;2022-07-18T03:24:59;95097.75;;;15.96;46.91
11339;BME280;5724;42.684;23.252;2022-07-18T03:27:24;95101.94;;;16.17;45.91
11339;BME280;5724;42.684;23.252;2022-07-18T03:29:50;95110.41;;;16.35;44.27
11339;BME280;5724;42.684;23.252;2022-07-18T03:32:15;95092.78;;;16.43;43.82
11339;BME280;5724;42.684;23.252;2022-07-18T03:34:41;95095.25;;;16.51;44.16
11339;BME280;5724;42.684;23.252;2022-07-18T03:37:06;95094.59;;;16.65;43.11
11339;BME280;5724;42.684;23.252;2022-07-18T03:39:32;95095.56;;;16.80;42.85
11339;BME280;5724;42.684;23.252;2022-07-18T03:41:57;95090.47;;;16.85;42.94
11339;BME280;5724;42.684;23.252;2022-07-18T03:44:23;95092.44;;;16.88;42.29
11339;BME280;5724;42.684;23.252;2022-07-18T03:46:48;95103.97;;;16.98;43.12
11339;BME280;5724;42.684;23.252;2022-07-18T03:49:17;95100.84;;;16.99;42.53
11339;BME280;5724;42.684;23.252;2022-07-18T03:51:42;95100.16;;;17.13;42.94
11339;BME280;5724;42.684;23.252;2022-07-18T03:54:07;95099.41;;;17.16;41.26
11339;BME280;5724;42.684;23.252;2022-07-18T03:56:35;95094.25;;;17.14;40.70
11339;BME280;5724;42.684;23.252;2022-07-18T03:59:00;95103.00;;;17.20;41.03
11339;BME280;5724;42.684;23.252;2022-07-18T04:01:26;95100.25;;;17.27;41.17
11339;BME280;5724;42.684;23.252;2022-07-18T04:03:51;95105.47;;;17.36;41.14
11339;BME280;5724;42.684;23.252;2022-07-18T04:06:17;95092.81;;;17.31;41.57
11339;BME280;5724;42.684;23.252;2022-07-18T04:08:42;95102.34;;;17.41;41.70
11339;BME280;5724;42.684;23.252;2022-07-18T04:11:08;95115.38;;;17.44;41.83
11339;BME280;5724;42.684;23.252;2022-07-18T04:13:33;95110.66;;;17.41;42.92
11339;BME280;5724;42.684;23.252;2022-07-18T04:15:59;95111.03;;;17.39;43.74
11339;BME280;5724;42.684;23.252;2022-07-18T04:18:24;95110.97;;;17.29;44.34
11339;BME280;5724;42.684;23.252;2022-07-18T04:20:50;95107.00;;;17.30;44.72
11339;BME280;5724;42.684;23.252;2022-07-18T04:23:16;95118.16;;;17.44;44.18
11339;BME280;5724;42.684;23.252;2022-07-18T04:25:41;95111.06;;;17.46;44.01
11339;BME280;5724;42.684;23.252;2022-07-18T04:28:10;95115.50;;;17.62;42.15
11339;BME280;5724;42.684;23.252;2022-07-18T04:30:36;95113.63;;;17.69;44.05
11339;BME280;5724;42.684;23.252;2022-07-18T04:33:03;95111.63;;;17.66;43.06
11339;BME280;5724;42.684;23.252;2022-07-18T04:35:30;95104.13;;;17.67;42.59
11339;BME280;5724;42.684;23.252;2022-07-18T04:37:56;95103.78;;;17.76;42.54
11339;BME280;5724;42.684;23.252;2022-07-18T04:40:22;95096.19;;;17.62;41.18
11339;BME280;5724;42.684;23.252;2022-07-18T04:42:48;95097.91;;;17.81;42.20
11339;BME280;5724;42.684;23.252;2022-07-18T04:45:13;95097.53;;;17.86;40.04
11339;BME280;5724;42.684;23.252;2022-07-18T04:47:40;95099.88;;;17.80;40.21
11339;BME280;5724;42.684;23.252;2022-07-18T04:50:07;95096.97;;;17.62;40.47
11339;BME280;5724;42.684;23.252;2022-07-18T04:52:40;95091.44;;;17.62;40.18
11339;BME280;5724;42.684;23.252;2022-07-18T04:55:07;95085.84;;;17.55;40.76
11339;BME280;5724;42.684;23.252;2022-07-18T04:57:33;95090.97;;;17.50;39.80
11339;BME280;5724;42.684;23.252;2022-07-18T05:00:00;95092.16;;;17.52;40.58
11339;BME280;5724;42.684;23.252;2022-07-18T05:02:26;95096.16;;;17.58;40.52
11339;BME280;5724;42.684;23.252;2022-07-18T05:04:51;95099.31;;;17.57;40.90
11339;BME280;5724;42.684;23.252;2022-07-18T05:07:17;95089.00;;;17.50;40.75
11339;BME280;5724;42.684;23.252;2022-07-18T05:09:42;95094.22;;;17.66;40.83
11339;BME280;5724;42.684;23.252;2022-07-18T05:12:08;95094.69;;;17.71;40.53
11339;BME280;5724;42.684;23.252;2022-07-18T05:14:33;95086.31;;;17.61;40.08
11339;BME280;5724;42.684;23.252;2022-07-18T05:16:59;95090.63;;;17.58;40.81
11339;BME280;5724;42.684;23.252;2022-07-18T05:19:24;95088.69;;;17.66;40.85
11339;BME280;5724;42.684;23.252;2022-07-18T05:21:50;95094.59;;;17.64;40.54
11339;BME280;5724;42.684;23.252;2022-07-18T05:24:15;95092.91;;;17.45;40.83
11339;BME280;5724;42.684;23.252;2022-07-18T05:26:41;95084.06;;;17.77;41.37
11339;BME280;5724;42.684;23.252;2022-07-18T05:29:06;95092.03;;;17.93;41.14
11339;BME280;5724;42.684;23.252;2022-07-18T05:31:32;95092.47;;;18.02;40.89
11339;BME280;5724;42.684;23.252;2022-07-18T05:33:58;95098.78;;;18.02;40.65
11339;BME280;5724;42.684;23.252;2022-07-18T05:36:24;95098.44;;;18.11;41.87
11339;BME280;5724;42.684;23.252;2022-07-18T05:38:49;95096.06;;;18.13;42.97
11339;BME280;5724;42.684;23.252;2022-07-18T05:41:15;95097.72;;;18.32;42.60
11339;BME280;5724;42.684;23.252;2022-07-18T05:43:40;95102.06;;;18.29;42.53
11339;BME280;5724;42.684;23.252;2022-07-18T05:46:06;95104.47;;;18.38;41.16
11339;BME280;5724;42.684;23.252;2022-07-18T05:48:32;95098.50;;;18.33;41.28
11339;BME280;5724;42.684;23.252;2022-07-18T05:50:58;95100.56;;;18.50;40.37
11339;BME280;5724;42.684;23.252;2022-07-18T05:53:23;95104.53;;;18.56;39.74
11339;BME280;5724;42.684;23.252;2022-07-18T05:55:49;95107.28;;;18.59;40.20
11339;BME280;5724;42.684;23.252;2022-07-18T05:58:14;95098.59;;;18.61;39.93
11339;BME280;5724;42.684;23.252;2022-07-18T06:00:40;95098.22;;;18.63;40.68
11339;BME280;5724;42.684;23.252;2022-07-18T06:03:05;95110.19;;;18.92;40.72
11339;BME280;5724;42.684;23.252;2022-07-18T06:05:31;95103.88;;;19.02;39.97
11339;BME280;5724;42.684;23.252;2022-07-18T06:07:56;95102.25;;;19.01;38.54
11339;BME280;5724;42.684;23.252;2022-07-18T06:10:24;95100.28;;;18.98;39.32
11339;BME280;5724;42.684;23.252;2022-07-18T06:12:50;95099.88;;;19.10;40.02
11339;BME280;5724;42.684;23.252;2022-07-18T06:15:16;95114.94;;;19.20;38.77
11339;BME280;5724;42.684;23.252;2022-07-18T06:17:42;95114.94;;;19.27;37.80
11339;BME280;5724;42.684;23.252;2022-07-18T06:20:08;95111.78;;;19.32;37.48
11339;BME280;5724;42.684;23.252;2022-07-18T06:22:34;95105.03;;;19.43;38.17
11339;BME280;5724;42.684;23.252;2022-07-18T06:25:00;95105.03;;;19.65;37.59
11339;BME280;5724;42.684;23.252;2022-07-18T06:27:26;95115.69;;;19.98;35.80
11339;BME280;5724;42.684;23.252;2022-07-18T06:29:52;95106.19;;;19.85;35.60
11339;BME280;5724;42.684;23.252;2022-07-18T06:32:17;95103.41;;;19.92;35.94
11339;BME280;5724;42.684;23.252;2022-07-18T06:34:43;95108.19;;;19.88;35.29
11339;BME280;5724;42.684;23.252;2022-07-18T06:37:08;95110.16;;;19.77;34.57
11339;BME280;5724;42.684;23.252;2022-07-18T06:39:34;95108.59;;;19.80;34.14
11339;BME280;5724;42.684;23.252;2022-07-18T06:41:59;95102.63;;;19.78;33.61
11339;BME280;5724;42.684;23.252;2022-07-18T06:44:25;95097.81;;;20.07;35.07
11339;BME280;5724;42.684;23.252;2022-07-18T06:46:50;95101.06;;;19.73;35.67
11339;BME280;5724;42.684;23.252;2022-07-18T06:49:18;95087.13;;;20.09;34.74
11339;BME280;5724;42.684;23.252;2022-07-18T06:51:43;95097.78;;;20.21;34.90
11339;BME280;5724;42.684;23.252;2022-07-18T06:54:09;95090.16;;;20.46;34.59
11339;BME280;5724;42.684;23.252;2022-07-18T06:56:35;95092.41;;;20.69;33.90
11339;BME280;5724;42.684;23.252;2022-07-18T06:59:00;95088.53;;;20.56;34.22
11339;BME280;5724;42.684;23.252;2022-07-18T07:01:26;95081.84;;;20.46;34.61
11339;BME280;5724;42.684;23.252;2022-07-18T07:03:51;95083.63;;;20.74;35.21
11339;BME280;5724;42.684;23.252;2022-07-18T07:06:17;95078.28;;;20.32;34.37
11339;BME280;5724;42.684;23.252;2022-07-18T07:08:43;95068.13;;;19.96;34.67
11339;BME280;5724;42.684;23.252;2022-07-18T07:11:08;95069.63;;;20.19;34.78
11339;BME280;5724;42.684;23.252;2022-07-18T07:13:34;95074.38;;;20.22;34.38
11339;BME280;5724;42.684;23.252;2022-07-18T07:15:59;95072.38;;;20.29;35.24
11339;BME280;5724;42.684;23.252;2022-07-18T07:18:25;95077.06;;;20.47;35.52
11339;BME280;5724;42.684;23.252;2022-07-18T07:20:50;95078.53;;;20.69;34.67
11339;BME280;5724;42.684;23.252;2022-07-18T07:23:16;95074.56;;;20.70;34.14
11339;BME280;5724;42.684;23.252;2022-07-18T07:25:42;95084.94;;;20.59;33.24
11339;BME280;5724;42.684;23.252;2022-07-18T07:28:07;95076.59;;;20.55;32.84
11339;BME280;5724;42.684;23.252;2022-07-18T07:30:33;95080.25;;;20.38;31.65
11339;BME280;5724;42.684;23.252;2022-07-18T07:33:00;95059.28;;;20.26;31.57
11339;BME280;5724;42.684;23.252;2022-07-18T07:35:26;95075.75;;;20.69;32.27
11339;BME280;5724;42.684;23.252;2022-07-18T07:37:58;95074.47;;;20.81;31.94
11339;BME280;5724;42.684;23.252;2022-07-18T07:40:26;95075.81;;;20.58;31.72
11339;BME280;5724;42.684;23.252;2022-07-18T07:42:52;95078.59;;;20.58;31.26
11339;BME280;5724;42.684;23.252;2022-07-18T07:45:19;95064.53;;;20.83;31.14
11339;BME280;5724;42.684;23.252;2022-07-18T07:47:44;95072.22;;;20.62;31.46
11339;BME280;5724;42.684;23.252;2022-07-18T07:50:11;95069.06;;;20.60;32.60
11339;BME280;5724;42.684;23.252;2022-07-18T07:52:38;95070.97;;;20.70;32.10
11339;BME280;5724;42.684;23.252;2022-07-18T07:55:07;95078.88;;;20.78;31.57
11339;BME280;5724;42.684;23.252;2022-07-18T07:57:33;95089.06;;;20.96;31.20
11339;BME280;5724;42.684;23.252;2022-07-18T08:00:03;95081.00;;;21.15;31.02
11339;BME280;5724;42.684;23.252;2022-07-18T08:02:29;95082.59;;;21.61;31.42
11339;BME280;5724;42.684;23.252;2022-07-18T08:04:55;95084.84;;;21.32;31.01
11339;BME280;5724;42.684;23.252;2022-07-18T08:07:20;95080.00;;;21.40;30.40
11339;BME280;5724;42.684;23.252;2022-07-18T08:09:46;95079.75;;;21.20;31.32
11339;BME280;5724;42.684;23.252;2022-07-18T08:12:11;95081.59;;;21.41;31.61
11339;BME280;5724;42.684;23.252;2022-07-18T08:14:37;95076.53;;;21.74;28.74
11339;BME280;5724;42.684;23.252;2022-07-18T08:17:05;95073.28;;;21.79;28.91
11339;BME280;5724;42.684;23.252;2022-07-18T08:19:31;95076.75;;;21.90;28.65
11339;BME280;5724;42.684;23.252;2022-07-18T08:21:56;95072.88;;;22.18;29.60
11339;BME280;5724;42.684;23.252;2022-07-18T08:24:22;95073.94;;;22.31;29.04
11339;BME280;5724;42.684;23.252;2022-07-18T08:26:47;95082.50;;;22.44;27.91
11339;BME280;5724;42.684;23.252;2022-07-18T08:29:14;95077.50;;;22.62;29.33
11339;BME280;5724;42.684;23.252;2022-07-18T08:31:40;95086.59;;;22.36;28.89
11339;BME280;5724;42.684;23.252;2022-07-18T08:34:05;95078.94;;;22.43;28.72
11339;BME280;5724;42.684;23.252;2022-07-18T08:36:31;95078.56;;;22.11;28.53
11339;BME280;5724;42.684;23.252;2022-07-18T08:38:56;95068.66;;;22.37;28.33
11339;BME280;5724;42.684;23.252;2022-07-18T08:41:23;95083.94;;;22.25;28.54
11339;BME280;5724;42.684;23.252;2022-07-18T08:43:49;95074.81;;;22.55;29.20
11339;BME280;5724;42.684;23.252;2022-07-18T08:46:19;95080.06;;;22.76;27.47
11339;BME280;5724;42.684;23.252;2022-07-18T08:48:47;95077.56;;;22.89;27.33
11339;BME280;5724;42.684;23.252;2022-07-18T08:51:12;95073.56;;;22.90;28.15
11339;BME280;5724;42.684;23.252;2022-07-18T08:53:38;95082.97;;;23.27;28.52
11339;BME280;5724;42.684;23.252;2022-07-18T08:56:04;95072.06;;;23.09;27.39
11339;BME280;5724;42.684;23.252;2022-07-18T08:58:30;95067.56;;;22.61;27.76
11339;BME280;5724;42.684;23.252;2022-07-18T09:00:56;95070.41;;;22.88;27.82
11339;BME280;5724;42.684;23.252;2022-07-18T09:03:25;95071.53;;;23.18;27.48
11339;BME280;5724;42.684;23.252;2022-07-18T09:06:12;95072.84;;;23.36;26.90
11339;BME280;5724;42.684;23.252;2022-07-18T09:08:39;95069.50;;;23.45;26.66
11339;BME280;5724;42.684;23.252;2022-07-18T09:11:09;95063.97;;;23.41;28.37
11339;BME280;5724;42.684;23.252;2022-07-18T09:13:41;95069.44;;;23.72;28.08
11339;BME280;5724;42.684;23.252;2022-07-18T09:16:12;95075.66;;;24.03;28.33
11339;BME280;5724;42.684;23.252;2022-07-18T09:18:40;95069.75;;;23.78;27.16
11339;BME280;5724;42.684;23.252;2022-07-18T09:23:41;95062.41;;;23.87;29.55
11339;BME280;5724;42.684;23.252;2022-07-18T09:26:07;95072.44;;;24.05;29.81
11339;BME280;5724;42.684;23.252;2022-07-18T09:31:23;95071.28;;;24.22;30.02
11339;BME280;5724;42.684;23.252;2022-07-18T09:33:55;95067.34;;;24.19;30.16
11339;BME280;5724;42.684;23.252;2022-07-18T09:36:21;95070.81;;;24.27;29.36
11339;BME280;5724;42.684;23.252;2022-07-18T09:38:47;95065.47;;;24.36;30.70
11339;BME280;5724;42.684;23.252;2022-07-18T09:41:13;95060.50;;;24.24;32.20
11339;BME280;5724;42.684;23.252;2022-07-18T09:43:39;95061.41;;;24.17;31.81
11339;BME280;5724;42.684;23.252;2022-07-18T09:46:06;95053.59;;;24.09;30.52
11339;BME280;5724;42.684;23.252;2022-07-18T09:48:33;95056.38;;;24.32;31.35
11339;BME280;5724;42.684;23.252;2022-07-18T09:51:03;95054.75;;;24.71;31.00
11339;BME280;5724;42.684;23.252;2022-07-18T09:55:57;95060.72;;;24.13;30.13
11339;BME280;5724;42.684;23.252;2022-07-18T09:58:28;95064.59;;;23.76;30.28
11339;BME280;5724;42.684;23.252;2022-07-18T10:00:57;95055.88;;;23.74;30.14
11339;BME280;5724;42.684;23.252;2022-07-18T10:03:23;95058.72;;;24.14;31.00
11339;BME280;5724;42.684;23.252;2022-07-18T10:05:51;95062.06;;;24.25;30.36
11339;BME280;5724;42.684;23.252;2022-07-18T10:08:30;95049.38;;;24.20;30.56
11339;BME280;5724;42.684;23.252;2022-07-18T10:10:58;95038.41;;;24.30;32.22
11339;BME280;5724;42.684;23.252;2022-07-18T10:13:28;95042.25;;;24.39;31.84
11339;BME280;5724;42.684;23.252;2022-07-18T10:15:54;95045.19;;;24.52;31.06
11339;BME280;5724;42.684;23.252;2022-07-18T10:18:25;95045.78;;;24.60;31.29
11339;BME280;5724;42.684;23.252;2022-07-18T10:23:34;95030.53;;;25.00;31.93
11339;BME280;5724;42.684;23.252;2022-07-18T10:26:16;95039.19;;;25.06;31.48
11339;BME280;5724;42.684;23.252;2022-07-18T10:33:54;95029.84;;;25.29;30.00
11339;BME280;5724;42.684;23.252;2022-07-18T10:37:06;95022.94;;;25.17;30.73
11339;BME280;5724;42.684;23.252;2022-07-18T10:57:32;95006.75;;;24.92;32.38
11339;BME280;5724;42.684;23.252;2022-07-18T11:00:12;95009.72;;;25.18;31.71
11339;BME280;5724;42.684;23.252;2022-07-18T11:02:41;95005.16;;;24.75;31.03
11339;BME280;5724;42.684;23.252;2022-07-18T11:21:23;94986.31;;;24.23;30.97
11339;BME280;5724;42.684;23.252;2022-07-18T11:23:51;94984.25;;;24.63;30.93
11339;BME280;5724;42.684;23.252;2022-07-18T11:26:22;94996.63;;;25.15;31.79
11339;BME280;5724;42.684;23.252;2022-07-18T11:29:15;94988.03;;;24.89;30.85
11339;BME280;5724;42.684;23.252;2022-07-18T11:31:52;94994.19;;;25.17;31.68
11339;BME280;5724;42.684;23.252;2022-07-18T11:34:19;94988.31;;;25.27;30.97
11339;BME280;5724;42.684;23.252;2022-07-18T11:36:47;94987.13;;;25.57;31.03
11339;BME280;5724;42.684;23.252;2022-07-18T11:39:13;94986.34;;;25.73;31.08
11339;BME280;5724;42.684;23.252;2022-07-18T11:41:40;94978.97;;;25.18;30.05
11339;BME280;5724;42.684;23.252;2022-07-18T11:44:19;94983.50;;;25.28;31.09
11339;BME280;5724;42.684;23.252;2022-07-18T11:47:07;94979.91;;;25.44;30.83
11339;BME280;5724;42.684;23.252;2022-07-18T11:49:34;94979.63;;;25.54;30.48
11339;BME280;5724;42.684;23.252;2022-07-18T11:52:00;94951.78;;;25.34;30.33
11339;BME280;5724;42.684;23.252;2022-07-18T11:54:25;94977.53;;;25.58;30.12
11339;BME280;5724;42.684;23.252;2022-07-18T11:56:54;94978.66;;;25.77;29.85
11339;BME280;5724;42.684;23.252;2022-07-18T11:59:21;94970.53;;;25.95;29.76
11339;BME280;5724;42.684;23.252;2022-07-18T12:01:47;94968.84;;;25.07;27.95
11339;BME280;5724;42.684;23.252;2022-07-18T12:04:23;94961.41;;;25.17;28.85
11339;BME280;5724;42.684;23.252;2022-07-18T12:07:26;94963.63;;;25.55;28.69
11339;BME280;5724;42.684;23.252;2022-07-18T12:09:52;94958.84;;;25.84;29.75
11339;BME280;5724;42.684;23.252;2022-07-18T12:12:21;94953.59;;;26.28;29.57
11339;BME280;5724;42.684;23.252;2022-07-18T12:15:00;94954.34;;;26.16;29.57
11339;BME280;5724;42.684;23.252;2022-07-18T12:17:27;94956.44;;;25.25;30.23
11339;BME280;5724;42.684;23.252;2022-07-18T12:20:12;94946.91;;;25.22;30.14
11339;BME280;5724;42.684;23.252;2022-07-18T12:23:07;94949.75;;;25.35;30.45
11339;BME280;5724;42.684;23.252;2022-07-18T12:25:40;94945.94;;;24.96;30.54
11339;BME280;5724;42.684;23.252;2022-07-18T12:28:17;94943.81;;;25.49;30.73
11339;BME280;5724;42.684;23.252;2022-07-18T12:30:44;94947.25;;;25.24;30.38
11339;BME280;5724;42.684;23.252;2022-07-18T12:33:10;94945.63;;;25.10;30.32
11339;BME280;5724;42.684;23.252;2022-07-18T12:35:37;94945.94;;;24.96;30.80
11339;BME280;5724;42.684;23.252;2022-07-18T12:43:13;94935.84;;;25.77;29.73
11339;BME280;5724;42.684;23.252;2022-07-18T12:45:40;94943.25;;;26.12;29.72
11339;BME280;5724;42.684;23.252;2022-07-18T12:48:08;94930.72;;;26.30;29.41
11339;BME280;5724;42.684;23.252;2022-07-18T12:50:35;94938.16;;;25.65;29.82
11339;BME280;5724;42.684;23.252;2022-07-18T12:53:01;94933.09;;;25.60;30.56
11339;BME280;5724;42.684;23.252;2022-07-18T12:55:27;94929.44;;;25.47;31.64
11339;BME280;5724;42.684;23.252;2022-07-18T12:57:52;94932.66;;;25.33;31.39
11339;BME280;5724;42.684;23.252;2022-07-18T13:00:18;94925.28;;;25.39;31.10
11339;BME280;5724;42.684;23.252;2022-07-18T13:02:45;94930.75;;;25.59;31.06
11339;BME280;5724;42.684;23.252;2022-07-18T13:05:10;94924.28;;;25.91;30.53
11339;BME280;5724;42.684;23.252;2022-07-18T13:07:36;94900.44;;;26.12;31.75
11339;BME280;5724;42.684;23.252;2022-07-18T13:10:02;94923.94;;;26.69;31.45
11339;BME280;5724;42.684;23.252;2022-07-18T13:12:28;94930.88;;;26.39;31.00
11339;BME280;5724;42.684;23.252;2022-07-18T13:14:53;94928.69;;;25.76;31.71
11339;BME280;5724;42.684;23.252;2022-07-18T13:17:19;94922.91;;;25.66;31.76
11339;BME280;5724;42.684;23.252;2022-07-18T13:19:44;94928.88;;;25.98;31.68
11339;BME280;5724;42.684;23.252;2022-07-18T13:22:11;94926.28;;;25.61;31.52
11339;BME280;5724;42.684;23.252;2022-07-18T13:24:36;94935.34;;;25.65;31.81
11339;BME280;5724;42.684;23.252;2022-07-18T13:27:05;94921.16;;;26.14;32.63
11339;BME280;5724;42.684;23.252;2022-07-18T13:29:30;94924.50;;;26.51;31.76
11339;BME280;5724;42.684;23.252;2022-07-18T13:31:56;94939.06;;;26.59;31.42
11339;BME280;5724;42.684;23.252;2022-07-18T13:34:22;94917.53;;;26.43;31.04
11339;BME280;5724;42.684;23.252;2022-07-18T13:36:52;94915.72;;;26.36;30.66
11339;BME280;5724;42.684;23.252;2022-07-18T13:39:19;94926.41;;;26.54;30.72
11339;BME280;5724;42.684;23.252;2022-07-18T13:41:45;94919.34;;;26.49;32.10
11339;BME280;5724;42.684;23.252;2022-07-18T13:44:11;94921.47;;;26.58;30.51
11339;BME280;5724;42.684;23.252;2022-07-18T13:46:36;94921.00;;;26.72;30.94
11339;BME280;5724;42.684;23.252;2022-07-18T13:49:02;94921.34;;;26.74;30.68
11339;BME280;5724;42.684;23.252;2022-07-18T13:51:28;94915.16;;;27.05;30.34
11339;BME280;5724;42.684;23.252;2022-07-18T13:53:53;94929.72;;;27.25;30.61
11339;BME280;5724;42.684;23.252;2022-07-18T13:56:19;94917.25;;;27.61;30.30